sensor_id;sensor_type;location;lat;lon;timestamp;P1;durP1;ratioP1;P2;durP2;ratioP2
78508;SDS011;67802;50.846;7.958;2023-07-31T08:32:34;4.53;;;1.60;;
78508;SDS011;67802;50.846;7.958;2023-07-31T08:34:59;5.10;;;1.50;;
78508;SDS011;67802;50.846;7.958;2023-07-31T08:37:24;5.05;;;1.52;;
78508;SDS011;67802;50.846;7.958;2023-07-31T08:39:50;3.33;;;1.20;;
78508;SDS011;67802;50.846;7.958;2023-07-31T08:42:16;4.25;;;1.50;;
78508;SDS011;67802;50.846;7.958;2023-07-31T08:44:41;4.80;;;1.33;;
78508;SDS011;67802;50.846;7.958;2023-07-31T08:47:08;4.20;;;1.60;;
78508;SDS011;67802;50.846;7.958;2023-07-31T08:49:34;4.72;;;1.38;;
78508;SDS011;67802;50.846;7.958;2023-07-31T08:52:02;5.00;;;1.35;;
78508;SDS011;67802;50.846;7.958;2023-07-31T08:54:27;3.63;;;1.27;;
78508;SDS011;67802;50.846;7.958;2023-07-31T08:56:55;3.63;;;1.30;;
78508;SDS011;67802;50.846;7.958;2023-07-31T08:59:22;3.50;;;1.50;;
78508;SDS011;67802;50.846;7.958;2023-07-31T09:01:49;3.58;;;1.60;;
78508;SDS011;67802;50.846;7.958;2023-07-31T09:04:17;4.40;;;1.33;;
78508;SDS011;67802;50.846;7.958;2023-07-31T09:06:44;3.38;;;1.25;;
78508;SDS011;67802;50.846;7.958;2023-07-31T09:09:11;3.70;;;1.40;;
78508;SDS011;67802;50.846;7.958;2023-07-31T09:11:37;5.22;;;1.60;;
78508;SDS011;67802;50.846;7.958;2023-07-31T09:14:02;4.07;;;1.42;;
78508;SDS011;67802;50.846;7.958;2023-07-31T09:18:59;6.43;;;1.70;;
78508;SDS011;67802;50.846;7.958;2023-07-31T09:21:26;3.22;;;1.27;;
78508;SDS011;67802;50.846;7.958;2023-07-31T09:23:53;4.05;;;1.40;;
78508;SDS011;67802;50.846;7.958;2023-07-31T09:26:32;4.45;;;1.35;;
78508;SDS011;67802;50.846;7.958;2023-07-31T09:28:59;4.72;;;1.38;;
78508;SDS011;67802;50.846;7.958;2023-07-31T09:31:31;3.42;;;1.40;;
78508;SDS011;67802;50.846;7.958;2023-07-31T09:33:58;3.83;;;1.42;;
78508;SDS011;67802;50.846;7.958;2023-07-31T09:36:23;5.25;;;1.50;;
78508;SDS011;67802;50.846;7.958;2023-07-31T09:38:48;4.30;;;1.60;;
78508;SDS011;67802;50.846;7.958;2023-07-31T09:41:13;3.60;;;1.27;;
78508;SDS011;67802;50.846;7.958;2023-07-31T09:43:39;2.92;;;1.25;;
78508;SDS011;67802;50.846;7.958;2023-07-31T09:46:04;3.75;;;1.40;;
78508;SDS011;67802;50.846;7.958;2023-07-31T09:48:38;5.68;;;1.40;;
78508;SDS011;67802;50.846;7.958;2023-07-31T09:51:04;4.53;;;1.27;;
78508;SDS011;67802;50.846;7.958;2023-07-31T09:53:30;4.20;;;1.52;;
78508;SDS011;67802;50.846;7.958;2023-07-31T09:55:56;4.25;;;1.60;;
78508;SDS011;67802;50.846;7.958;2023-07-31T09:58:23;5.65;;;1.80;;
78508;SDS011;67802;50.846;7.958;2023-07-31T10:00:53;4.50;;;1.58;;
78508;SDS011;67802;50.846;7.958;2023-07-31T10:03:20;3.88;;;1.40;;
78508;SDS011;67802;50.846;7.958;2023-07-31T10:05:48;3.55;;;1.48;;
78508;SDS011;67802;50.846;7.958;2023-07-31T10:08:15;3.85;;;1.40;;
78508;SDS011;67802;50.846;7.958;2023-07-31T10:10:43;3.85;;;1.52;;
78508;SDS011;67802;50.846;7.958;2023-07-31T10:13:10;4.18;;;1.52;;
78508;SDS011;67802;50.846;7.958;2023-07-31T10:15:36;5.95;;;1.50;;
78508;SDS011;67802;50.846;7.958;2023-07-31T10:18:02;3.95;;;1.40;;
78508;SDS011;67802;50.846;7.958;2023-07-31T10:20:30;4.43;;;1.50;;
78508;SDS011;67802;50.846;7.958;2023-07-31T10:22:56;5.25;;;1.77;;
78508;SDS011;67802;50.846;7.958;2023-07-31T10:25:22;4.95;;;1.50;;
78508;SDS011;67802;50.846;7.958;2023-07-31T10:27:48;4.82;;;1.60;;
78508;SDS011;67802;50.846;7.958;2023-07-31T10:30:16;4.38;;;1.40;;
78508;SDS011;67802;50.846;7.958;2023-07-31T10:32:43;4.25;;;1.63;;
78508;SDS011;67802;50.846;7.958;2023-07-31T10:35:10;4.20;;;1.52;;
78508;SDS011;67802;50.846;7.958;2023-07-31T10:37:40;4.03;;;1.45;;
78508;SDS011;67802;50.846;7.958;2023-07-31T10:40:11;4.15;;;1.40;;
78508;SDS011;67802;50.846;7.958;2023-07-31T10:42:44;5.03;;;1.30;;
78508;SDS011;67802;50.846;7.958;2023-07-31T10:45:14;5.65;;;1.70;;
78508;SDS011;67802;50.846;7.958;2023-07-31T10:50:31;4.50;;;1.50;;
78508;SDS011;67802;50.846;7.958;2023-07-31T10:52:58;5.47;;;1.50;;
78508;SDS011;67802;50.846;7.958;2023-07-31T10:58:13;5.22;;;1.73;;
78508;SDS011;67802;50.846;7.958;2023-07-31T11:00:39;3.90;;;1.35;;
78508;SDS011;67802;50.846;7.958;2023-07-31T11:05:56;5.13;;;1.50;;
78508;SDS011;67802;50.846;7.958;2023-07-31T11:08:31;4.15;;;1.58;;
78508;SDS011;67802;50.846;7.958;2023-07-31T11:13:26;4.65;;;1.90;;
78508;SDS011;67802;50.846;7.958;2023-07-31T11:15:51;4.68;;;1.75;;
78508;SDS011;67802;50.846;7.958;2023-07-31T11:18:16;4.60;;;1.60;;
78508;SDS011;67802;50.846;7.958;2023-07-31T11:20:42;4.00;;;1.40;;
78508;SDS011;67802;50.846;7.958;2023-07-31T11:23:08;4.45;;;1.63;;
78508;SDS011;67802;50.846;7.958;2023-07-31T11:25:34;4.30;;;1.42;;
78508;SDS011;67802;50.846;7.958;2023-07-31T11:28:10;4.60;;;1.80;;
78508;SDS011;67802;50.846;7.958;2023-07-31T11:30:37;4.30;;;1.40;;
78508;SDS011;67802;50.846;7.958;2023-07-31T11:33:04;4.85;;;1.70;;
78508;SDS011;67802;50.846;7.958;2023-07-31T11:35:31;4.00;;;1.50;;
78508;SDS011;67802;50.846;7.958;2023-07-31T11:38:01;4.90;;;1.60;;
78508;SDS011;67802;50.846;7.958;2023-07-31T11:40:27;4.32;;;1.77;;
78508;SDS011;67802;50.846;7.958;2023-07-31T11:42:57;4.78;;;1.60;;
78508;SDS011;67802;50.846;7.958;2023-07-31T11:45:26;5.05;;;1.80;;
78508;SDS011;67802;50.846;7.958;2023-07-31T11:47:55;5.82;;;1.70;;
78508;SDS011;67802;50.846;7.958;2023-07-31T11:50:22;4.82;;;1.70;;
78508;SDS011;67802;50.846;7.958;2023-07-31T11:52:52;4.28;;;1.50;;
78508;SDS011;67802;50.846;7.958;2023-07-31T11:55:21;4.05;;;1.60;;
78508;SDS011;67802;50.846;7.958;2023-07-31T11:57:47;5.45;;;2.00;;
78508;SDS011;67802;50.846;7.958;2023-07-31T12:00:13;4.93;;;1.50;;
78508;SDS011;67802;50.846;7.958;2023-07-31T12:02:40;4.63;;;1.55;;
78508;SDS011;67802;50.846;7.958;2023-07-31T12:05:15;4.63;;;1.60;;
78508;SDS011;67802;50.846;7.958;2023-07-31T12:07:50;4.82;;;1.40;;
78508;SDS011;67802;50.846;7.958;2023-07-31T12:13:05;4.40;;;1.73;;
78508;SDS011;67802;50.846;7.958;2023-07-31T12:15:37;8.82;;;2.95;;
78508;SDS011;67802;50.846;7.958;2023-07-31T12:18:07;9.45;;;2.17;;
78508;SDS011;67802;50.846;7.958;2023-07-31T12:20:34;8.57;;;2.97;;
78508;SDS011;67802;50.846;7.958;2023-07-31T12:23:00;11.02;;;2.95;;
78508;SDS011;67802;50.846;7.958;2023-07-31T12:25:29;9.25;;;3.20;;
78508;SDS011;67802;50.846;7.958;2023-07-31T12:27:55;7.32;;;2.80;;
78508;SDS011;67802;50.846;7.958;2023-07-31T12:30:34;7.38;;;3.08;;
78508;SDS011;67802;50.846;7.958;2023-07-31T12:33:06;6.43;;;2.75;;
78508;SDS011;67802;50.846;7.958;2023-07-31T12:35:37;7.45;;;3.30;;
78508;SDS011;67802;50.846;7.958;2023-07-31T12:38:05;8.90;;;3.20;;
78508;SDS011;67802;50.846;7.958;2023-07-31T12:40:31;8.15;;;3.08;;
78508;SDS011;67802;50.846;7.958;2023-07-31T12:42:57;6.50;;;2.80;;
78508;SDS011;67802;50.846;7.958;2023-07-31T12:45:22;9.13;;;3.83;;
78508;SDS011;67802;50.846;7.958;2023-07-31T12:47:48;7.10;;;2.60;;
78508;SDS011;67802;50.846;7.958;2023-07-31T12:50:13;8.65;;;3.20;;
78508;SDS011;67802;50.846;7.958;2023-07-31T12:52:39;6.30;;;2.58;;
78508;SDS011;67802;50.846;7.958;2023-07-31T12:55:04;6.35;;;2.75;;
78508;SDS011;67802;50.846;7.958;2023-07-31T12:57:30;7.78;;;2.80;;
78508;SDS011;67802;50.846;7.958;2023-07-31T12:59:55;7.93;;;2.83;;
78508;SDS011;67802;50.846;7.958;2023-07-31T13:02:21;6.00;;;2.25;;
78508;SDS011;67802;50.846;7.958;2023-07-31T13:04:46;7.18;;;2.60;;
78508;SDS011;67802;50.846;7.958;2023-07-31T13:07:12;6.93;;;2.55;;
78508;SDS011;67802;50.846;7.958;2023-07-31T13:09:37;7.07;;;2.60;;
78508;SDS011;67802;50.846;7.958;2023-07-31T13:12:02;7.35;;;2.88;;
78508;SDS011;67802;50.846;7.958;2023-07-31T13:14:28;7.55;;;2.20;;
78508;SDS011;67802;50.846;7.958;2023-07-31T13:16:53;6.32;;;2.65;;
78508;SDS011;67802;50.846;7.958;2023-07-31T13:19:18;6.35;;;2.78;;
78508;SDS011;67802;50.846;7.958;2023-07-31T13:21:44;5.80;;;2.40;;
78508;SDS011;67802;50.846;7.958;2023-07-31T13:24:09;5.75;;;2.03;;
78508;SDS011;67802;50.846;7.958;2023-07-31T13:26:35;4.53;;;1.83;;
78508;SDS011;67802;50.846;7.958;2023-07-31T13:29:02;6.90;;;2.40;;
78508;SDS011;67802;50.846;7.958;2023-07-31T13:31:27;5.30;;;2.22;;
78508;SDS011;67802;50.846;7.958;2023-07-31T13:33:52;6.18;;;2.10;;
78508;SDS011;67802;50.846;7.958;2023-07-31T13:36:18;5.25;;;2.35;;
78508;SDS011;67802;50.846;7.958;2023-07-31T13:38:43;6.20;;;2.33;;
78508;SDS011;67802;50.846;7.958;2023-07-31T13:41:08;8.02;;;2.22;;
78508;SDS011;67802;50.846;7.958;2023-07-31T13:43:34;7.03;;;2.60;;
78508;SDS011;67802;50.846;7.958;2023-07-31T13:45:59;6.47;;;2.40;;
78508;SDS011;67802;50.846;7.958;2023-07-31T13:48:31;7.85;;;2.15;;
78508;SDS011;67802;50.846;7.958;2023-07-31T13:50:56;6.68;;;2.40;;
78508;SDS011;67802;50.846;7.958;2023-07-31T13:53:22;6.47;;;2.07;;
78508;SDS011;67802;50.846;7.958;2023-07-31T13:55:47;7.53;;;2.37;;
78508;SDS011;67802;50.846;7.958;2023-07-31T13:58:14;6.32;;;2.53;;
78508;SDS011;67802;50.846;7.958;2023-07-31T14:00:39;6.90;;;2.20;;
78508;SDS011;67802;50.846;7.958;2023-07-31T14:03:04;5.70;;;2.07;;
78508;SDS011;67802;50.846;7.958;2023-07-31T14:05:30;32.47;;;3.53;;
78508;SDS011;67802;50.846;7.958;2023-07-31T14:07:55;18.17;;;2.70;;
78508;SDS011;67802;50.846;7.958;2023-07-31T14:10:20;11.27;;;2.45;;
78508;SDS011;67802;50.846;7.958;2023-07-31T14:12:46;8.93;;;2.30;;
78508;SDS011;67802;50.846;7.958;2023-07-31T14:15:11;6.95;;;2.05;;
78508;SDS011;67802;50.846;7.958;2023-07-31T14:17:36;9.05;;;2.40;;
78508;SDS011;67802;50.846;7.958;2023-07-31T14:20:02;9.60;;;2.20;;
78508;SDS011;67802;50.846;7.958;2023-07-31T14:22:28;8.00;;;2.15;;
78508;SDS011;67802;50.846;7.958;2023-07-31T14:24:54;6.32;;;2.22;;
78508;SDS011;67802;50.846;7.958;2023-07-31T14:27:20;8.20;;;1.98;;
78508;SDS011;67802;50.846;7.958;2023-07-31T14:29:45;5.13;;;2.00;;
78508;SDS011;67802;50.846;7.958;2023-07-31T14:32:10;6.47;;;1.73;;
78508;SDS011;67802;50.846;7.958;2023-07-31T14:34:36;5.68;;;1.92;;
78508;SDS011;67802;50.846;7.958;2023-07-31T14:37:01;11.00;;;1.88;;
78508;SDS011;67802;50.846;7.958;2023-07-31T14:39:26;6.53;;;1.70;;
78508;SDS011;67802;50.846;7.958;2023-07-31T14:41:52;4.77;;;1.60;;
78508;SDS011;67802;50.846;7.958;2023-07-31T14:44:17;7.20;;;2.10;;
78508;SDS011;67802;50.846;7.958;2023-07-31T14:46:42;6.00;;;1.70;;
78508;SDS011;67802;50.846;7.958;2023-07-31T14:49:07;4.90;;;1.60;;
78508;SDS011;67802;50.846;7.958;2023-07-31T14:51:33;4.55;;;1.77;;
78508;SDS011;67802;50.846;7.958;2023-07-31T14:53:58;4.70;;;1.50;;
78508;SDS011;67802;50.846;7.958;2023-07-31T14:56:23;5.13;;;1.58;;
78508;SDS011;67802;50.846;7.958;2023-07-31T14:58:49;5.07;;;1.90;;
78508;SDS011;67802;50.846;7.958;2023-07-31T15:01:14;4.40;;;1.60;;
78508;SDS011;67802;50.846;7.958;2023-07-31T15:03:39;6.18;;;1.85;;
78508;SDS011;67802;50.846;7.958;2023-07-31T15:06:04;6.63;;;1.80;;
78508;SDS011;67802;50.846;7.958;2023-07-31T15:08:32;4.20;;;1.60;;
78508;SDS011;67802;50.846;7.958;2023-07-31T15:10:58;5.38;;;1.75;;
78508;SDS011;67802;50.846;7.958;2023-07-31T15:13:23;4.22;;;1.60;;
78508;SDS011;67802;50.846;7.958;2023-07-31T15:15:49;4.82;;;1.50;;
78508;SDS011;67802;50.846;7.958;2023-07-31T15:18:15;5.93;;;1.83;;
78508;SDS011;67802;50.846;7.958;2023-07-31T15:20:40;4.35;;;1.63;;
78508;SDS011;67802;50.846;7.958;2023-07-31T15:23:05;4.55;;;1.73;;
78508;SDS011;67802;50.846;7.958;2023-07-31T15:25:31;3.58;;;1.40;;
78508;SDS011;67802;50.846;7.958;2023-07-31T15:27:56;7.35;;;1.77;;
78508;SDS011;67802;50.846;7.958;2023-07-31T15:30:21;3.63;;;1.55;;
78508;SDS011;67802;50.846;7.958;2023-07-31T15:32:47;4.47;;;1.60;;
78508;SDS011;67802;50.846;7.958;2023-07-31T15:35:15;3.35;;;1.48;;
78508;SDS011;67802;50.846;7.958;2023-07-31T15:37:40;4.63;;;1.60;;
78508;SDS011;67802;50.846;7.958;2023-07-31T15:40:06;6.47;;;1.50;;
78508;SDS011;67802;50.846;7.958;2023-07-31T15:42:32;4.50;;;1.42;;
78508;SDS011;67802;50.846;7.958;2023-07-31T15:45:02;3.90;;;1.40;;
78508;SDS011;67802;50.846;7.958;2023-07-31T15:47:27;4.85;;;1.70;;
78508;SDS011;67802;50.846;7.958;2023-07-31T15:49:52;4.03;;;1.40;;
78508;SDS011;67802;50.846;7.958;2023-07-31T15:52:18;3.88;;;1.60;;
78508;SDS011;67802;50.846;7.958;2023-07-31T15:54:43;3.97;;;1.65;;
78508;SDS011;67802;50.846;7.958;2023-07-31T15:57:08;4.10;;;1.50;;
78508;SDS011;67802;50.846;7.958;2023-07-31T15:59:34;3.65;;;1.40;;
78508;SDS011;67802;50.846;7.958;2023-07-31T16:01:59;3.90;;;1.60;;
78508;SDS011;67802;50.846;7.958;2023-07-31T16:04:24;3.97;;;1.50;;
78508;SDS011;67802;50.846;7.958;2023-07-31T16:06:49;4.53;;;1.47;;
78508;SDS011;67802;50.846;7.958;2023-07-31T16:09:15;3.77;;;1.53;;
78508;SDS011;67802;50.846;7.958;2023-07-31T16:11:40;3.30;;;1.30;;
78508;SDS011;67802;50.846;7.958;2023-07-31T16:14:07;3.65;;;1.50;;
78508;SDS011;67802;50.846;7.958;2023-07-31T16:16:32;3.70;;;1.20;;
78508;SDS011;67802;50.846;7.958;2023-07-31T16:18:57;3.83;;;1.50;;
78508;SDS011;67802;50.846;7.958;2023-07-31T16:21:23;3.70;;;1.48;;
78508;SDS011;67802;50.846;7.958;2023-07-31T16:23:48;3.25;;;1.13;;
78508;SDS011;67802;50.846;7.958;2023-07-31T16:26:13;4.53;;;1.48;;
78508;SDS011;67802;50.846;7.958;2023-07-31T16:28:39;3.60;;;1.30;;
78508;SDS011;67802;50.846;7.958;2023-07-31T16:31:04;3.25;;;1.35;;
78508;SDS011;67802;50.846;7.958;2023-07-31T16:33:30;3.78;;;1.42;;
78508;SDS011;67802;50.846;7.958;2023-07-31T16:35:58;3.42;;;1.33;;
78508;SDS011;67802;50.846;7.958;2023-07-31T16:38:23;3.60;;;1.35;;
78508;SDS011;67802;50.846;7.958;2023-07-31T16:40:48;4.50;;;1.57;;
78508;SDS011;67802;50.846;7.958;2023-07-31T16:43:14;3.67;;;1.20;;
78508;SDS011;67802;50.846;7.958;2023-07-31T16:45:39;4.68;;;1.30;;
78508;SDS011;67802;50.846;7.958;2023-07-31T16:48:05;3.78;;;1.30;;
78508;SDS011;67802;50.846;7.958;2023-07-31T16:50:30;3.88;;;1.75;;
78508;SDS011;67802;50.846;7.958;2023-07-31T16:52:55;3.35;;;1.33;;
78508;SDS011;67802;50.846;7.958;2023-07-31T16:55:21;4.05;;;1.40;;
78508;SDS011;67802;50.846;7.958;2023-07-31T16:57:46;3.47;;;1.30;;
78508;SDS011;67802;50.846;7.958;2023-07-31T17:00:12;3.92;;;1.40;;
78508;SDS011;67802;50.846;7.958;2023-07-31T17:02:38;3.28;;;1.15;;
78508;SDS011;67802;50.846;7.958;2023-07-31T17:05:03;3.13;;;1.40;;
78508;SDS011;67802;50.846;7.958;2023-07-31T17:07:29;4.20;;;1.13;;
78508;SDS011;67802;50.846;7.958;2023-07-31T17:09:55;3.55;;;1.30;;
78508;SDS011;67802;50.846;7.958;2023-07-31T17:12:21;4.68;;;1.50;;
78508;SDS011;67802;50.846;7.958;2023-07-31T17:14:46;4.55;;;1.17;;
78508;SDS011;67802;50.846;7.958;2023-07-31T17:17:11;2.25;;;1.08;;
78508;SDS011;67802;50.846;7.958;2023-07-31T17:19:37;3.33;;;1.35;;
78508;SDS011;67802;50.846;7.958;2023-07-31T17:22:02;4.53;;;1.50;;
78508;SDS011;67802;50.846;7.958;2023-07-31T17:24:28;3.50;;;1.30;;
78508;SDS011;67802;50.846;7.958;2023-07-31T17:26:53;3.80;;;1.20;;
78508;SDS011;67802;50.846;7.958;2023-07-31T17:29:18;3.72;;;1.50;;
78508;SDS011;67802;50.846;7.958;2023-07-31T17:31:44;3.45;;;1.30;;
78508;SDS011;67802;50.846;7.958;2023-07-31T17:34:09;2.78;;;1.20;;
78508;SDS011;67802;50.846;7.958;2023-07-31T17:36:35;2.47;;;1.15;;
78508;SDS011;67802;50.846;7.958;2023-07-31T17:39:00;2.58;;;1.17;;
78508;SDS011;67802;50.846;7.958;2023-07-31T17:41:25;3.80;;;1.30;;
78508;SDS011;67802;50.846;7.958;2023-07-31T17:43:52;4.05;;;1.30;;
78508;SDS011;67802;50.846;7.958;2023-07-31T17:46:17;3.95;;;1.40;;
78508;SDS011;67802;50.846;7.958;2023-07-31T17:48:43;3.90;;;1.40;;
78508;SDS011;67802;50.846;7.958;2023-07-31T17:51:08;4.63;;;1.60;;
78508;SDS011;67802;50.846;7.958;2023-07-31T17:53:34;5.05;;;1.70;;
78508;SDS011;67802;50.846;7.958;2023-07-31T17:55:59;4.88;;;1.38;;
78508;SDS011;67802;50.846;7.958;2023-07-31T17:58:25;4.57;;;1.33;;
78508;SDS011;67802;50.846;7.958;2023-07-31T18:00:50;4.30;;;1.30;;
78508;SDS011;67802;50.846;7.958;2023-07-31T18:03:16;3.97;;;1.50;;
78508;SDS011;67802;50.846;7.958;2023-07-31T18:05:41;4.05;;;1.48;;
78508;SDS011;67802;50.846;7.958;2023-07-31T18:08:07;4.57;;;1.50;;
78508;SDS011;67802;50.846;7.958;2023-07-31T18:10:32;3.40;;;1.35;;
78508;SDS011;67802;50.846;7.958;2023-07-31T18:12:58;4.53;;;1.50;;
78508;SDS011;67802;50.846;7.958;2023-07-31T18:15:24;5.00;;;1.40;;
78508;SDS011;67802;50.846;7.958;2023-07-31T18:17:50;4.85;;;1.52;;
78508;SDS011;67802;50.846;7.958;2023-07-31T18:20:15;3.40;;;1.40;;
78508;SDS011;67802;50.846;7.958;2023-07-31T18:22:41;4.43;;;1.42;;
78508;SDS011;67802;50.846;7.958;2023-07-31T18:25:06;4.07;;;1.40;;
78508;SDS011;67802;50.846;7.958;2023-07-31T18:27:34;3.85;;;1.30;;
78508;SDS011;67802;50.846;7.958;2023-07-31T18:29:59;6.38;;;1.50;;
78508;SDS011;67802;50.846;7.958;2023-07-31T18:32:25;5.57;;;1.50;;
78508;SDS011;67802;50.846;7.958;2023-07-31T18:34:50;4.47;;;1.33;;
78508;SDS011;67802;50.846;7.958;2023-07-31T18:37:15;5.47;;;1.27;;
78508;SDS011;67802;50.846;7.958;2023-07-31T18:39:41;3.38;;;1.45;;
78508;SDS011;67802;50.846;7.958;2023-07-31T18:42:06;5.17;;;1.47;;
78508;SDS011;67802;50.846;7.958;2023-07-31T18:44:33;3.72;;;1.40;;
78508;SDS011;67802;50.846;7.958;2023-07-31T18:46:58;4.63;;;1.58;;
78508;SDS011;67802;50.846;7.958;2023-07-31T18:49:23;3.33;;;1.40;;
78508;SDS011;67802;50.846;7.958;2023-07-31T18:51:49;4.05;;;1.35;;
78508;SDS011;67802;50.846;7.958;2023-07-31T18:54:14;5.13;;;1.58;;
78508;SDS011;67802;50.846;7.958;2023-07-31T18:56:40;3.75;;;1.42;;
78508;SDS011;67802;50.846;7.958;2023-07-31T18:59:05;3.75;;;1.40;;
78508;SDS011;67802;50.846;7.958;2023-07-31T19:01:30;5.13;;;1.50;;
78508;SDS011;67802;50.846;7.958;2023-07-31T19:03:56;4.45;;;1.42;;
78508;SDS011;67802;50.846;7.958;2023-07-31T19:06:23;3.75;;;1.40;;
78508;SDS011;67802;50.846;7.958;2023-07-31T19:08:48;3.20;;;1.30;;
78508;SDS011;67802;50.846;7.958;2023-07-31T19:11:14;5.68;;;1.48;;
78508;SDS011;67802;50.846;7.958;2023-07-31T19:13:39;4.45;;;1.65;;
78508;SDS011;67802;50.846;7.958;2023-07-31T19:16:05;2.88;;;1.20;;
78508;SDS011;67802;50.846;7.958;2023-07-31T19:18:30;3.53;;;1.20;;
78508;SDS011;67802;50.846;7.958;2023-07-31T19:20:56;3.58;;;1.23;;
78508;SDS011;67802;50.846;7.958;2023-07-31T19:23:21;3.33;;;1.27;;
78508;SDS011;67802;50.846;7.958;2023-07-31T19:25:47;3.65;;;1.35;;
78508;SDS011;67802;50.846;7.958;2023-07-31T19:28:12;3.30;;;1.20;;
78508;SDS011;67802;50.846;7.958;2023-07-31T19:30:38;3.22;;;1.30;;
78508;SDS011;67802;50.846;7.958;2023-07-31T19:33:04;3.50;;;1.38;;
78508;SDS011;67802;50.846;7.958;2023-07-31T19:35:30;3.72;;;1.38;;
